Time;durP1;ratioP1;P1;durP2;ratioP2;P2;SDS_P1;SDS_P2;PMS_P1;PMS_P2;Temp;Humidity;BMP_temperature;BMP_pressure;BME280_temperature;BME280_humidity;BME280_pressure;Samples;Min_cycle;Max_cycle;Signal;HPM_P1;HPM_P2
2023/11/21 00:01:25;;;;;;;11.85;4.57;;;;;;;;;;5059053;28;20036;-60
2023/11/21 00:03:55;;;;;;;12.65;4.60;;;;;;;;;;5052776;28;20041;-60
2023/11/21 00:06:21;;;;;;;10.80;4.40;;;;;;;;;;5051043;28;20045;-60
2023/11/21 00:08:47;;;;;;;19.55;4.82;;;;;;;;;;5056082;28;20077;-60
2023/11/21 00:11:13;;;;;;;11.48;5.03;;;;;;;;;;5059383;28;20037;-60
2023/11/21 00:13:40;;;;;;;15.88;5.35;;;;;;;;;;5059342;28;20053;-60
2023/11/21 00:16:07;;;;;;;21.83;5.57;;;;;;;;;;5060290;28;20527;-60
2023/11/21 00:18:33;;;;;;;17.83;5.65;;;;;;;;;;5056036;28;20052;-60
2023/11/21 00:20:59;;;;;;;20.90;5.45;;;;;;;;;;5031401;28;20480;-60
2023/11/21 00:23:26;;;;;;;12.60;5.05;;;;;;;;;;5051710;28;20049;-60
2023/11/21 00:25:52;;;;;;;13.38;5.07;;;;;;;;;;5051342;28;20461;-60
2023/11/21 00:28:18;;;;;;;16.85;5.65;;;;;;;;;;5048821;28;20396;-60
2023/11/21 00:30:44;;;;;;;24.48;5.55;;;;;;;;;;5052136;28;20036;-61
2023/11/21 00:33:11;;;;;;;17.27;4.68;;;;;;;;;;5046527;28;20539;-60
2023/11/21 00:35:37;;;;;;;14.18;5.30;;;;;;;;;;5062728;28;20427;-60
2023/11/21 00:38:03;;;;;;;18.73;4.93;;;;;;;;;;5068057;28;20063;-60
2023/11/21 00:40:29;;;;;;;18.40;5.32;;;;;;;;;;5051760;28;20041;-60
2023/11/21 00:42:55;;;;;;;20.95;5.90;;;;;;;;;;5054559;28;20242;-60
2023/11/21 00:45:22;;;;;;;13.40;5.15;;;;;;;;;;5046615;28;20053;-60
2023/11/21 00:47:48;;;;;;;20.10;6.15;;;;;;;;;;5058025;28;20049;-60
2023/11/21 00:50:15;;;;;;;15.50;5.60;;;;;;;;;;5055838;28;20546;-60
2023/11/21 00:52:41;;;;;;;17.90;5.90;;;;;;;;;;5054346;28;20087;-60
2023/11/21 00:55:08;;;;;;;22.05;5.80;;;;;;;;;;5066193;28;20044;-60
2023/11/21 00:57:34;;;;;;;18.38;5.47;;;;;;;;;;5054825;28;20086;-60
2023/11/21 01:00:00;;;;;;;17.92;6.15;;;;;;;;;;5062157;28;20059;-60
2023/11/21 01:02:27;;;;;;;19.15;5.25;;;;;;;;;;5050991;28;20041;-60
2023/11/21 01:04:53;;;;;;;19.58;5.85;;;;;;;;;;5058263;28;20041;-60
2023/11/21 01:07:20;;;;;;;21.48;5.88;;;;;;;;;;5062454;28;20408;-60
2023/11/21 01:09:46;;;;;;;15.98;4.93;;;;;;;;;;5058673;28;20051;-60
2023/11/21 01:12:12;;;;;;;16.10;4.70;;;;;;;;;;5050787;28;20491;-60
2023/11/21 01:14:39;;;;;;;19.73;6.30;;;;;;;;;;5053829;28;20037;-60
2023/11/21 01:17:05;;;;;;;21.83;6.13;;;;;;;;;;5052980;28;20051;-60
2023/11/21 01:19:31;;;;;;;21.45;6.20;;;;;;;;;;5064554;28;20338;-60
2023/11/21 01:21:58;;;;;;;19.90;6.32;;;;;;;;;;5049202;28;20200;-60
2023/11/21 01:24:24;;;;;;;18.77;6.13;;;;;;;;;;5051776;28;20049;-60
2023/11/21 01:26:50;;;;;;;18.15;5.85;;;;;;;;;;5049314;28;20041;-60
2023/11/21 01:29:17;;;;;;;26.20;6.72;;;;;;;;;;5058846;28;20051;-60
2023/11/21 01:31:43;;;;;;;21.20;6.78;;;;;;;;;;5058782;28;20046;-60
2023/11/21 01:34:09;;;;;;;18.38;6.57;;;;;;;;;;5056450;28;20102;-60
2023/11/21 01:36:35;;;;;;;21.42;7.05;;;;;;;;;;5056519;28;20040;-60
2023/11/21 01:39:01;;;;;;;20.23;6.65;;;;;;;;;;5053967;28;20578;-60
2023/11/21 01:41:28;;;;;;;25.95;8.10;;;;;;;;;;5055570;28;20033;-60
2023/11/21 01:43:55;;;;;;;28.92;8.65;;;;;;;;;;5052759;28;20048;-60
2023/11/21 01:46:22;;;;;;;25.05;8.15;;;;;;;;;;5058061;28;20451;-60
2023/11/21 01:48:49;;;;;;;30.00;7.90;;;;;;;;;;5052819;28;20041;-60
2023/11/21 01:51:16;;;;;;;25.50;8.05;;;;;;;;;;5042494;28;20437;-60
2023/11/21 01:53:42;;;;;;;26.77;8.90;;;;;;;;;;5051186;28;20064;-60
2023/11/21 01:56:09;;;;;;;30.42;8.80;;;;;;;;;;5059266;28;20485;-60
2023/11/21 01:58:35;;;;;;;39.03;9.85;;;;;;;;;;5058586;28;20501;-60
2023/11/21 02:01:02;;;;;;;24.65;8.32;;;;;;;;;;5054305;28;20041;-60
2023/11/21 02:03:28;;;;;;;25.88;7.40;;;;;;;;;;5049592;28;20526;-60
2023/11/21 02:05:54;;;;;;;18.08;7.10;;;;;;;;;;5059222;28;20033;-60
2023/11/21 02:08:20;;;;;;;19.33;6.72;;;;;;;;;;5053842;28;20111;-60
2023/11/21 02:10:47;;;;;;;19.08;6.82;;;;;;;;;;5054482;28;20069;-60
2023/11/21 02:13:13;;;;;;;20.70;6.40;;;;;;;;;;5045091;28;20048;-60
2023/11/21 02:15:41;;;;;;;25.05;6.43;;;;;;;;;;5053325;28;20041;-60
2023/11/21 02:18:07;;;;;;;19.48;6.53;;;;;;;;;;5050194;28;20527;-60
2023/11/21 02:20:34;;;;;;;19.42;6.53;;;;;;;;;;5047389;28;20040;-60
2023/11/21 02:23:01;;;;;;;18.92;7.22;;;;;;;;;;5054536;28;20048;-60
2023/11/21 02:25:28;;;;;;;15.00;6.80;;;;;;;;;;5051890;28;20068;-60
2023/11/21 02:27:58;;;;;;;16.27;7.25;;;;;;;;;;5050026;28;20114;-60
2023/11/21 02:30:33;;;;;;;17.10;6.95;;;;;;;;;;5051400;28;20106;-60
2023/11/21 02:33:00;;;;;;;13.82;7.03;;;;;;;;;;5028633;28;20045;-60
2023/11/21 02:35:27;;;;;;;22.83;7.43;;;;;;;;;;5031603;28;20049;-60
2023/11/21 02:37:53;;;;;;;19.02;7.90;;;;;;;;;;5035656;28;20456;-60
2023/11/21 02:40:24;;;;;;;17.63;8.10;;;;;;;;;;5029186;28;20044;-60
2023/11/21 02:42:51;;;;;;;14.80;7.65;;;;;;;;;;5037797;28;20045;-60
2023/11/21 02:45:17;;;;;;;14.73;6.43;;;;;;;;;;5029568;28;20393;-60
2023/11/21 02:47:44;;;;;;;15.52;6.95;;;;;;;;;;5037939;28;20037;-60
2023/11/21 02:50:11;;;;;;;14.93;6.85;;;;;;;;;;5042921;28;20076;-60
2023/11/21 02:52:37;;;;;;;13.23;6.80;;;;;;;;;;5045911;28;20049;-60
2023/11/21 02:55:03;;;;;;;13.55;6.32;;;;;;;;;;5030153;28;20050;-60
2023/11/21 02:57:30;;;;;;;10.73;5.15;;;;;;;;;;5032430;28;20120;-60
2023/11/21 02:59:56;;;;;;;13.55;5.18;;;;;;;;;;5037239;28;20135;-60
2023/11/21 03:02:23;;;;;;;13.60;4.35;;;;;;;;;;5035255;28;20056;-60
2023/11/21 03:04:49;;;;;;;11.68;4.03;;;;;;;;;;5038271;28;20099;-60
2023/11/21 03:07:16;;;;;;;10.95;3.58;;;;;;;;;;5033720;28;20057;-60
2023/11/21 03:09:42;;;;;;;11.32;3.92;;;;;;;;;;5030508;28;20426;-60
2023/11/21 03:12:11;;;;;;;13.27;4.20;;;;;;;;;;5034122;28;20064;-60
2023/11/21 03:14:38;;;;;;;13.48;3.78;;;;;;;;;;5039040;28;20041;-60
2023/11/21 03:17:04;;;;;;;14.75;4.63;;;;;;;;;;5035161;28;20041;-60
2023/11/21 03:19:31;;;;;;;14.38;4.30;;;;;;;;;;5028293;28;20170;-60
2023/11/21 03:21:57;;;;;;;20.10;4.53;;;;;;;;;;5022225;28;20053;-60
2023/11/21 03:24:23;;;;;;;26.45;7.68;;;;;;;;;;5008891;28;20084;-60
2023/11/21 03:26:50;;;;;;;18.13;5.50;;;;;;;;;;5022743;28;20033;-60
2023/11/21 03:29:17;;;;;;;19.63;5.18;;;;;;;;;;5026511;28;20052;-60
2023/11/21 03:31:43;;;;;;;16.55;5.85;;;;;;;;;;5039612;28;20413;-60
2023/11/21 03:34:16;;;;;;;18.75;6.68;;;;;;;;;;5042791;28;20151;-60
2023/11/21 03:36:42;;;;;;;20.67;5.68;;;;;;;;;;5047699;28;20128;-60
2023/11/21 03:39:08;;;;;;;20.95;7.72;;;;;;;;;;5053867;28;20064;-60
2023/11/21 03:41:34;;;;;;;24.40;8.07;;;;;;;;;;5032849;28;20157;-60
2023/11/21 03:44:01;;;;;;;22.02;7.50;;;;;;;;;;5040924;28;20084;-60
2023/11/21 03:46:27;;;;;;;21.15;8.52;;;;;;;;;;5040511;28;20558;-60
2023/11/21 03:48:55;;;;;;;36.08;9.35;;;;;;;;;;5049800;28;20045;-60
2023/11/21 03:51:21;;;;;;;22.88;8.52;;;;;;;;;;5045818;28;20063;-60
2023/11/21 03:53:47;;;;;;;21.58;8.65;;;;;;;;;;5046874;28;20036;-60
2023/11/21 03:56:14;;;;;;;20.27;9.25;;;;;;;;;;5046276;28;20083;-60
2023/11/21 03:58:41;;;;;;;33.70;10.40;;;;;;;;;;5063447;28;20045;-60
2023/11/21 04:01:07;;;;;;;34.45;10.55;;;;;;;;;;5050087;28;20056;-60
2023/11/21 04:03:33;;;;;;;23.20;9.38;;;;;;;;;;5047632;28;20033;-60
2023/11/21 04:06:00;;;;;;;34.50;10.45;;;;;;;;;;5050428;28;20044;-60
2023/11/21 04:08:27;;;;;;;32.33;10.90;;;;;;;;;;5049138;28;20041;-60
2023/11/21 04:10:53;;;;;;;25.42;10.88;;;;;;;;;;5059712;28;20084;-60
2023/11/21 04:13:19;;;;;;;41.22;11.35;;;;;;;;;;5048279;28;20037;-60
2023/11/21 04:15:46;;;;;;;33.60;10.68;;;;;;;;;;5056181;28;20072;-60
2023/11/21 04:18:12;;;;;;;35.40;11.75;;;;;;;;;;5053836;28;20044;-60
2023/11/21 04:20:38;;;;;;;36.55;11.70;;;;;;;;;;5048149;28;20041;-60
2023/11/21 04:23:04;;;;;;;33.25;11.85;;;;;;;;;;5046883;28;20049;-60
2023/11/21 04:25:30;;;;;;;36.70;13.05;;;;;;;;;;5048082;28;20073;-60
2023/11/21 04:27:56;;;;;;;35.78;13.10;;;;;;;;;;5049559;28;20083;-60
2023/11/21 04:30:23;;;;;;;43.35;13.18;;;;;;;;;;5047641;28;20489;-60
2023/11/21 04:32:50;;;;;;;37.65;13.25;;;;;;;;;;5050397;28;20072;-60
2023/11/21 04:35:16;;;;;;;32.72;12.45;;;;;;;;;;5051966;28;20583;-60
2023/11/21 04:37:43;;;;;;;33.15;11.77;;;;;;;;;;5061216;28;20341;-60
2023/11/21 04:40:09;;;;;;;29.65;12.57;;;;;;;;;;5063032;28;20109;-60
2023/11/21 04:42:36;;;;;;;36.47;12.80;;;;;;;;;;5057105;28;20587;-60
2023/11/21 04:45:07;;;;;;;35.92;13.23;;;;;;;;;;5058771;28;20040;-60
2023/11/21 04:47:34;;;;;;;37.33;13.20;;;;;;;;;;5058240;28;20582;-60
2023/11/21 04:50:00;;;;;;;36.33;12.05;;;;;;;;;;5037758;28;20105;-60
2023/11/21 04:52:26;;;;;;;36.33;13.02;;;;;;;;;;5057038;28;20033;-60
2023/11/21 04:54:54;;;;;;;32.92;10.98;;;;;;;;;;5051243;28;20041;-60
2023/11/21 04:57:21;;;;;;;35.53;11.55;;;;;;;;;;5049701;28;20067;-60
2023/11/21 04:59:48;;;;;;;34.40;12.63;;;;;;;;;;5049610;28;20174;-60
2023/11/21 05:02:14;;;;;;;49.83;14.63;;;;;;;;;;5044737;28;20786;-60
2023/11/21 05:04:42;;;;;;;38.80;12.50;;;;;;;;;;5050670;28;20037;-60
2023/11/21 05:07:08;;;;;;;36.95;13.20;;;;;;;;;;5052341;28;20049;-60
2023/11/21 05:09:35;;;;;;;40.17;12.57;;;;;;;;;;5047765;28;20135;-60
2023/11/21 05:12:02;;;;;;;43.13;13.55;;;;;;;;;;5046822;28;20049;-60
2023/11/21 05:14:28;;;;;;;34.22;12.23;;;;;;;;;;5052749;28;20045;-60
2023/11/21 05:16:54;;;;;;;40.28;13.27;;;;;;;;;;5060961;28;20107;-60
2023/11/21 05:19:21;;;;;;;40.42;11.80;;;;;;;;;;5053910;28;20037;-60
2023/11/21 05:21:47;;;;;;;38.00;12.65;;;;;;;;;;5052319;28;20084;-60
2023/11/21 05:24:13;;;;;;;41.90;13.35;;;;;;;;;;5050459;28;20036;-60
2023/11/21 05:26:39;;;;;;;36.05;15.02;;;;;;;;;;5027856;28;20045;-60
2023/11/21 05:29:05;;;;;;;48.60;16.05;;;;;;;;;;5039878;28;20451;-60
2023/11/21 05:31:31;;;;;;;46.40;15.73;;;;;;;;;;5053733;28;20136;-60
2023/11/21 05:33:58;;;;;;;43.20;16.65;;;;;;;;;;5053119;28;20494;-60
2023/11/21 05:36:24;;;;;;;49.72;17.48;;;;;;;;;;5047583;28;20036;-60
2023/11/21 05:38:50;;;;;;;41.85;16.00;;;;;;;;;;5045771;28;20236;-60
2023/11/21 05:41:16;;;;;;;55.97;18.13;;;;;;;;;;5051615;28;20047;-60
2023/11/21 05:43:43;;;;;;;56.67;17.35;;;;;;;;;;5051025;28;20037;-60
2023/11/21 05:46:09;;;;;;;47.38;16.35;;;;;;;;;;5051894;28;20040;-60
2023/11/21 05:48:38;;;;;;;36.92;12.98;;;;;;;;;;5053817;28;20045;-60
2023/11/21 05:51:08;;;;;;;38.00;14.45;;;;;;;;;;5064297;28;20053;-60
2023/11/21 05:53:34;;;;;;;39.13;14.25;;;;;;;;;;5047231;28;20057;-60
2023/11/21 05:56:01;;;;;;;59.88;17.50;;;;;;;;;;5049062;28;20127;-60
2023/11/21 05:58:27;;;;;;;44.72;15.15;;;;;;;;;;5031224;28;20045;-60
2023/11/21 06:00:53;;;;;;;43.17;16.10;;;;;;;;;;5049846;28;20060;-60
2023/11/21 06:03:19;;;;;;;44.80;16.48;;;;;;;;;;5047857;28;20035;-60
2023/11/21 06:05:45;;;;;;;43.22;15.65;;;;;;;;;;5050094;28;20049;-60
2023/11/21 06:08:12;;;;;;;47.47;15.57;;;;;;;;;;5047575;28;20041;-60
2023/11/21 06:10:39;;;;;;;47.50;16.73;;;;;;;;;;5031184;28;20099;-60
2023/11/21 06:13:07;;;;;;;50.08;17.50;;;;;;;;;;5051430;28;20373;-60
2023/11/21 06:15:33;;;;;;;41.45;15.85;;;;;;;;;;5051514;28;20052;-60
2023/11/21 06:17:59;;;;;;;43.25;15.85;;;;;;;;;;5050412;28;20041;-60
2023/11/21 06:20:26;;;;;;;50.92;16.75;;;;;;;;;;5051260;28;20072;-60
2023/11/21 06:22:52;;;;;;;51.53;17.90;;;;;;;;;;5050278;28;20041;-59
2023/11/21 06:25:18;;;;;;;51.45;18.15;;;;;;;;;;5046214;28;20098;-60
2023/11/21 06:27:45;;;;;;;51.22;19.20;;;;;;;;;;5051161;28;20044;-60
2023/11/21 06:30:13;;;;;;;60.00;18.15;;;;;;;;;;5051323;28;20134;-60
2023/11/21 06:32:40;;;;;;;62.33;19.40;;;;;;;;;;5049552;28;20079;-60
2023/11/21 06:35:06;;;;;;;58.97;19.67;;;;;;;;;;5050884;28;20266;-60
2023/11/21 06:37:33;;;;;;;56.13;18.85;;;;;;;;;;5050219;28;20041;-60
2023/11/21 06:39:59;;;;;;;66.00;20.33;;;;;;;;;;5047450;28;20077;-60
2023/11/21 06:42:26;;;;;;;55.10;18.10;;;;;;;;;;5048170;28;20041;-60
2023/11/21 06:44:53;;;;;;;54.22;17.75;;;;;;;;;;5046035;28;20049;-60
2023/11/21 06:47:24;;;;;;;52.60;17.20;;;;;;;;;;5048068;28;20049;-60
2023/11/21 06:49:51;;;;;;;46.72;17.02;;;;;;;;;;5032983;28;20053;-60
2023/11/21 06:52:18;;;;;;;44.30;16.25;;;;;;;;;;5050052;28;20036;-60
2023/11/21 06:54:45;;;;;;;47.55;17.52;;;;;;;;;;5050932;28;20041;-60
2023/11/21 06:57:11;;;;;;;50.50;15.85;;;;;;;;;;5061449;28;20040;-60
2023/11/21 06:59:37;;;;;;;50.95;17.30;;;;;;;;;;5063091;28;20047;-60
2023/11/21 07:02:06;;;;;;;46.83;15.98;;;;;;;;;;5061474;28;20032;-60
2023/11/21 07:04:36;;;;;;;51.92;17.90;;;;;;;;;;5052783;28;20451;-60
2023/11/21 07:07:03;;;;;;;50.80;19.42;;;;;;;;;;5058725;28;20040;-60
2023/11/21 07:09:29;;;;;;;45.42;17.38;;;;;;;;;;5065280;28;20044;-60
2023/11/21 07:11:56;;;;;;;57.00;20.80;;;;;;;;;;5057222;28;20055;-60
2023/11/21 07:14:22;;;;;;;48.88;19.50;;;;;;;;;;5053925;28;20118;-59
2023/11/21 07:16:48;;;;;;;43.53;16.65;;;;;;;;;;5055311;28;20321;-60
2023/11/21 07:19:14;;;;;;;42.97;17.50;;;;;;;;;;5042917;28;20042;-60
2023/11/21 07:21:41;;;;;;;39.35;17.70;;;;;;;;;;5058915;28;20089;-59
2023/11/21 07:24:08;;;;;;;33.70;16.27;;;;;;;;;;5068735;28;20373;-61
2023/11/21 07:26:35;;;;;;;37.42;16.38;;;;;;;;;;5070437;28;20044;-60
2023/11/21 07:29:02;;;;;;;33.58;16.05;;;;;;;;;;5069817;28;20127;-59
2023/11/21 07:31:29;;;;;;;30.10;14.55;;;;;;;;;;5060627;28;20136;-59
2023/11/21 07:33:57;;;;;;;27.55;14.70;;;;;;;;;;5064723;28;20071;-59
2023/11/21 07:36:23;;;;;;;28.83;14.07;;;;;;;;;;5069740;28;20045;-59
2023/11/21 07:38:50;;;;;;;27.15;13.90;;;;;;;;;;5070472;28;20171;-59
2023/11/21 07:41:17;;;;;;;30.13;14.10;;;;;;;;;;5062621;28;20392;-59
2023/11/21 07:43:44;;;;;;;20.88;12.35;;;;;;;;;;5050356;28;20115;-59
2023/11/21 07:46:12;;;;;;;20.77;12.18;;;;;;;;;;5054647;28;20040;-59
2023/11/21 07:48:39;;;;;;;24.48;12.77;;;;;;;;;;5054612;28;20395;-59
2023/11/21 07:51:06;;;;;;;23.58;11.65;;;;;;;;;;5060607;28;20072;-59
2023/11/21 07:53:32;;;;;;;23.15;12.73;;;;;;;;;;5062369;28;20117;-60
2023/11/21 07:56:03;;;;;;;18.55;11.23;;;;;;;;;;5042173;28;20044;-60
2023/11/21 07:58:29;;;;;;;24.85;12.55;;;;;;;;;;5070271;28;20040;-59
2023/11/21 08:00:55;;;;;;;22.48;12.90;;;;;;;;;;5059088;28;20059;-60
2023/11/21 08:03:21;;;;;;;25.67;13.60;;;;;;;;;;5064794;28;20423;-60
2023/11/21 08:05:48;;;;;;;29.35;15.63;;;;;;;;;;5070232;28;20388;-65
2023/11/21 08:08:15;;;;;;;24.08;13.15;;;;;;;;;;5070176;28;20033;-64
2023/11/21 08:10:42;;;;;;;26.50;12.75;;;;;;;;;;5056826;28;20399;-61
2023/11/21 08:13:09;;;;;;;25.67;12.85;;;;;;;;;;5065515;28;20381;-67
2023/11/21 08:15:36;;;;;;;23.75;12.48;;;;;;;;;;5068706;28;20056;-60
2023/11/21 08:18:03;;;;;;;22.08;12.00;;;;;;;;;;5048895;28;20745;-60
2023/11/21 08:20:29;;;;;;;25.75;12.00;;;;;;;;;;5051430;28;20392;-60
2023/11/21 08:22:56;;;;;;;25.15;12.93;;;;;;;;;;5063507;28;20041;-59
2023/11/21 08:25:23;;;;;;;24.17;13.13;;;;;;;;;;5067674;28;20049;-60
2023/11/21 08:27:49;;;;;;;25.63;12.15;;;;;;;;;;5066163;28;20048;-59
2023/11/21 08:30:16;;;;;;;21.13;12.70;;;;;;;;;;5049689;28;20098;-59
2023/11/21 08:32:43;;;;;;;26.48;12.23;;;;;;;;;;5071587;28;20049;-59
2023/11/21 08:35:10;;;;;;;25.50;13.07;;;;;;;;;;5055424;28;20060;-59
2023/11/21 08:37:37;;;;;;;27.25;14.13;;;;;;;;;;5066240;28;20041;-60
2023/11/21 08:40:07;;;;;;;22.13;13.57;;;;;;;;;;5065340;28;20044;-59
2023/11/21 08:42:34;;;;;;;24.67;13.55;;;;;;;;;;5073214;28;20048;-59
2023/11/21 08:45:01;;;;;;;23.80;13.77;;;;;;;;;;5067209;28;20040;-60
2023/11/21 08:47:27;;;;;;;26.50;14.77;;;;;;;;;;5073180;28;20048;-60
2023/11/21 08:49:53;;;;;;;28.85;14.52;;;;;;;;;;5063825;28;20045;-60
2023/11/21 08:52:23;;;;;;;28.17;15.48;;;;;;;;;;5060881;28;20494;-60
2023/11/21 08:54:55;;;;;;;22.85;14.68;;;;;;;;;;5055551;28;20048;-59
2023/11/21 08:57:24;;;;;;;27.17;16.50;;;;;;;;;;5053603;28;20047;-60
2023/11/21 08:59:55;;;;;;;23.70;14.75;;;;;;;;;;5054781;28;20194;-60
2023/11/21 09:02:26;;;;;;;24.63;14.48;;;;;;;;;;5052700;28;20064;-59
2023/11/21 09:04:53;;;;;;;24.38;14.70;;;;;;;;;;5052750;28;20040;-59
2023/11/21 09:07:22;;;;;;;29.13;16.40;;;;;;;;;;5071964;28;20044;-60
2023/11/21 09:09:49;;;;;;;29.02;15.98;;;;;;;;;;5072875;28;20045;-59
2023/11/21 09:12:15;;;;;;;27.00;15.48;;;;;;;;;;5070664;28;20447;-59
2023/11/21 09:14:43;;;;;;;30.00;16.08;;;;;;;;;;5060067;28;20481;-59
2023/11/21 09:17:14;;;;;;;28.20;15.90;;;;;;;;;;5066443;28;20036;-60
2023/11/21 09:19:45;;;;;;;28.00;16.02;;;;;;;;;;5061778;28;20052;-60
2023/11/21 09:22:11;;;;;;;28.17;15.27;;;;;;;;;;5068539;28;20049;-60
2023/11/21 09:24:37;;;;;;;27.65;16.00;;;;;;;;;;5072827;28;20040;-59
2023/11/21 09:27:05;;;;;;;27.73;15.93;;;;;;;;;;5071628;28;20048;-59
2023/11/21 09:29:31;;;;;;;23.65;15.60;;;;;;;;;;5063335;28;20207;-60
2023/11/21 09:31:59;;;;;;;25.00;15.25;;;;;;;;;;5053350;28;20358;-59
2023/11/21 09:34:25;;;;;;;19.40;12.90;;;;;;;;;;5070635;28;20051;-59
2023/11/21 09:36:52;;;;;;;20.83;12.57;;;;;;;;;;5066389;28;20339;-59
2023/11/21 09:39:18;;;;;;;18.92;11.55;;;;;;;;;;5065687;28;20076;-59
2023/11/21 09:41:50;;;;;;;22.48;11.85;;;;;;;;;;5071475;28;20077;-59
2023/11/21 09:44:23;;;;;;;23.60;12.77;;;;;;;;;;5072137;28;20052;-59
2023/11/21 09:46:49;;;;;;;18.27;12.67;;;;;;;;;;5067791;28;20051;-59
2023/11/21 09:49:19;;;;;;;19.33;12.85;;;;;;;;;;5042461;28;20451;-59
2023/11/21 09:51:45;;;;;;;19.63;12.93;;;;;;;;;;5072066;28;20403;-59
2023/11/21 09:54:12;;;;;;;22.73;12.88;;;;;;;;;;5062093;28;20041;-60
2023/11/21 09:56:38;;;;;;;18.70;12.30;;;;;;;;;;5059147;28;20041;-59
2023/11/21 09:59:08;;;;;;;21.15;13.52;;;;;;;;;;5053584;28;20085;-60
2023/11/21 10:01:37;;;;;;;24.05;13.55;;;;;;;;;;5062484;28;20068;-60
2023/11/21 10:04:05;;;;;;;22.23;13.73;;;;;;;;;;5071319;28;20072;-60
2023/11/21 10:06:32;;;;;;;20.25;12.75;;;;;;;;;;5071587;28;20098;-60
2023/11/21 10:09:00;;;;;;;17.20;12.25;;;;;;;;;;5056797;28;20040;-59
2023/11/21 10:11:27;;;;;;;27.95;14.77;;;;;;;;;;5062691;28;20057;-59
2023/11/21 10:13:57;;;;;;;21.00;13.27;;;;;;;;;;5047480;28;20492;-59
2023/11/21 10:16:24;;;;;;;19.95;12.98;;;;;;;;;;5048645;28;20041;-59
2023/11/21 10:18:53;;;;;;;19.63;12.63;;;;;;;;;;5056468;28;20079;-59
2023/11/21 10:21:19;;;;;;;20.30;12.98;;;;;;;;;;5032016;28;20540;-59
2023/11/21 10:23:46;;;;;;;17.23;12.43;;;;;;;;;;5070515;28;20120;-60
2023/11/21 10:26:16;;;;;;;19.75;13.43;;;;;;;;;;5071550;28;20092;-60
2023/11/21 10:28:56;;;;;;;19.70;13.30;;;;;;;;;;5055326;28;20140;-61
2023/11/21 10:31:24;;;;;;;18.30;13.02;;;;;;;;;;5046446;28;20060;-61
2023/11/21 10:33:52;;;;;;;18.55;12.95;;;;;;;;;;5058670;28;20057;-61
2023/11/21 10:36:27;;;;;;;17.35;12.95;;;;;;;;;;5032136;28;20059;-60
2023/11/21 10:38:54;;;;;;;17.05;12.02;;;;;;;;;;5064251;28;20047;-60
2023/11/21 10:41:25;;;;;;;15.93;11.55;;;;;;;;;;5043257;28;20485;-60
2023/11/21 10:43:55;;;;;;;15.70;11.50;;;;;;;;;;5071121;28;20067;-59
2023/11/21 10:46:23;;;;;;;16.88;11.60;;;;;;;;;;5055750;28;20047;-60
2023/11/21 10:48:56;;;;;;;16.02;11.27;;;;;;;;;;5056871;28;20056;-59
2023/11/21 10:51:24;;;;;;;14.38;10.40;;;;;;;;;;5056079;28;20045;-59
2023/11/21 10:53:52;;;;;;;15.50;9.65;;;;;;;;;;5063830;28;20053;-59
2023/11/21 10:56:21;;;;;;;13.48;10.90;;;;;;;;;;5046954;28;20395;-59
2023/11/21 10:58:49;;;;;;;16.73;10.73;;;;;;;;;;5046068;28;20045;-59
2023/11/21 11:01:17;;;;;;;16.25;9.52;;;;;;;;;;5046252;28;20342;-59
2023/11/21 11:03:44;;;;;;;16.40;10.52;;;;;;;;;;5045177;28;20486;-59
2023/11/21 11:06:14;;;;;;;16.73;10.70;;;;;;;;;;5046049;28;20059;-59
2023/11/21 11:08:41;;;;;;;15.52;9.73;;;;;;;;;;5043888;28;20048;-60
2023/11/21 11:11:09;;;;;;;13.82;9.40;;;;;;;;;;5047186;28;20048;-59
2023/11/21 11:13:36;;;;;;;14.25;9.02;;;;;;;;;;5044782;28;20053;-60
2023/11/21 11:16:03;;;;;;;14.98;9.93;;;;;;;;;;5044059;28;20444;-60
2023/11/21 11:18:31;;;;;;;15.18;8.68;;;;;;;;;;5044307;28;20108;-60
2023/11/21 11:21:20;;;;;;;13.57;8.80;;;;;;;;;;5043312;28;20478;-60
2023/11/21 11:23:50;;;;;;;12.25;7.90;;;;;;;;;;5043338;28;20143;-60
2023/11/21 11:26:35;;;;;;;10.18;7.38;;;;;;;;;;5042558;28;20489;-60
2023/11/21 11:29:01;;;;;;;11.85;7.45;;;;;;;;;;5044158;28;20045;-60
2023/11/21 11:31:40;;;;;;;12.02;8.02;;;;;;;;;;5042348;28;20451;-60
2023/11/21 11:34:16;;;;;;;9.65;6.47;;;;;;;;;;5044171;28;20041;-60
2023/11/21 11:36:43;;;;;;;10.00;6.80;;;;;;;;;;5043431;28;20080;-60
2023/11/21 11:39:28;;;;;;;10.45;6.68;;;;;;;;;;5044135;28;20044;-60
2023/11/21 11:41:56;;;;;;;10.60;7.10;;;;;;;;;;5027546;28;20102;-60
2023/11/21 11:44:51;;;;;;;9.73;6.53;;;;;;;;;;5042602;28;20453;-60
2023/11/21 11:47:22;;;;;;;8.95;5.70;;;;;;;;;;5043029;28;20049;-60
2023/11/21 11:50:00;;;;;;;8.18;5.75;;;;;;;;;;5051885;28;20048;-60
2023/11/21 11:52:32;;;;;;;10.02;5.50;;;;;;;;;;5048698;28;20377;-60
2023/11/21 11:54:59;;;;;;;8.65;6.10;;;;;;;;;;5047419;28;20184;-60
2023/11/21 11:57:25;;;;;;;7.78;5.00;;;;;;;;;;5046244;28;20052;-60
2023/11/21 12:00:11;;;;;;;8.73;4.60;;;;;;;;;;5049145;28;20037;-60
2023/11/21 12:02:40;;;;;;;8.02;4.93;;;;;;;;;;5047547;28;20048;-60
2023/11/21 12:05:14;;;;;;;7.57;5.03;;;;;;;;;;5051767;28;20124;-60
2023/11/21 12:07:46;;;;;;;9.65;5.45;;;;;;;;;;5051401;28;20044;-60
2023/11/21 12:10:17;;;;;;;8.80;5.22;;;;;;;;;;5052074;28;20052;-59
2023/11/21 12:12:47;;;;;;;8.25;5.38;;;;;;;;;;5048282;28;20045;-59
2023/11/21 12:15:14;;;;;;;8.20;5.60;;;;;;;;;;5047724;28;20045;-59
2023/11/21 12:17:40;;;;;;;8.23;5.50;;;;;;;;;;5046796;28;20116;-60
2023/11/21 12:20:14;;;;;;;8.82;5.75;;;;;;;;;;5051210;28;20118;-60
2023/11/21 12:22:42;;;;;;;7.88;5.32;;;;;;;;;;5047486;28;20049;-60
2023/11/21 12:25:08;;;;;;;10.90;6.00;;;;;;;;;;5047459;28;20475;-60
2023/11/21 12:27:35;;;;;;;8.05;5.03;;;;;;;;;;5047977;28;20453;-60
2023/11/21 12:30:01;;;;;;;8.27;5.03;;;;;;;;;;5048462;28;20096;-59
2023/11/21 12:32:27;;;;;;;7.35;5.00;;;;;;;;;;5053443;28;20057;-60
2023/11/21 12:34:54;;;;;;;7.97;5.47;;;;;;;;;;5052475;28;20087;-59
2023/11/21 12:37:22;;;;;;;8.35;5.20;;;;;;;;;;5052821;28;20107;-60
2023/11/21 12:39:49;;;;;;;8.50;5.13;;;;;;;;;;5053281;28;20085;-60
2023/11/21 12:42:15;;;;;;;7.05;4.63;;;;;;;;;;5052846;28;20127;-60
2023/11/21 12:44:44;;;;;;;7.65;4.60;;;;;;;;;;5051777;28;20041;-60
2023/11/21 12:47:14;;;;;;;6.65;4.53;;;;;;;;;;5052434;28;20099;-60
2023/11/21 12:49:44;;;;;;;7.45;4.53;;;;;;;;;;5052926;28;20048;-60
2023/11/21 12:52:11;;;;;;;7.32;4.20;;;;;;;;;;5052355;28;20052;-60
2023/11/21 12:54:37;;;;;;;7.28;4.43;;;;;;;;;;5051824;28;20080;-60
2023/11/21 12:57:08;;;;;;;7.90;4.65;;;;;;;;;;5057422;28;20049;-60
2023/11/21 12:59:34;;;;;;;8.38;4.55;;;;;;;;;;5064843;28;20070;-60
2023/11/21 13:02:05;;;;;;;10.02;5.28;;;;;;;;;;5072790;28;20097;-60
2023/11/21 13:04:32;;;;;;;9.27;5.53;;;;;;;;;;5067029;28;20052;-60
2023/11/21 13:07:06;;;;;;;8.98;5.93;;;;;;;;;;5071969;28;20044;-60
2023/11/21 13:09:32;;;;;;;9.98;5.85;;;;;;;;;;5073033;28;20141;-60
2023/11/21 13:12:03;;;;;;;8.93;5.30;;;;;;;;;;5067361;28;20036;-59
2023/11/21 13:14:31;;;;;;;7.78;5.13;;;;;;;;;;5067366;28;20175;-60
2023/11/21 13:16:58;;;;;;;10.30;5.63;;;;;;;;;;5072561;28;20092;-60
2023/11/21 13:19:24;;;;;;;11.25;6.43;;;;;;;;;;5071985;28;20417;-60
2023/11/21 13:21:50;;;;;;;9.35;5.20;;;;;;;;;;5072621;28;20614;-60
2023/11/21 13:24:17;;;;;;;10.77;5.20;;;;;;;;;;5060658;28;20041;-60
2023/11/21 13:26:46;;;;;;;8.48;5.70;;;;;;;;;;5055439;28;20048;-60
2023/11/21 13:29:13;;;;;;;10.80;6.38;;;;;;;;;;5052669;28;20076;-60
2023/11/21 13:31:39;;;;;;;11.90;6.75;;;;;;;;;;5072435;28;20051;-60
2023/11/21 13:34:08;;;;;;;9.48;6.28;;;;;;;;;;5060320;28;20049;-59
2023/11/21 13:36:35;;;;;;;9.10;5.85;;;;;;;;;;5052163;28;20399;-60
2023/11/21 13:39:07;;;;;;;11.93;6.72;;;;;;;;;;5052212;28;20605;-60
2023/11/21 13:41:34;;;;;;;10.82;6.25;;;;;;;;;;5049855;28;20045;-59
2023/11/21 13:44:15;;;;;;;10.73;6.40;;;;;;;;;;5052110;28;20083;-60
2023/11/21 13:46:42;;;;;;;12.45;7.60;;;;;;;;;;5052024;28;20080;-60
2023/11/21 13:49:11;;;;;;;11.32;5.85;;;;;;;;;;5051304;28;20170;-59
2023/11/21 13:51:43;;;;;;;10.40;6.43;;;;;;;;;;5045517;28;20493;-59
2023/11/21 13:54:09;;;;;;;9.95;6.88;;;;;;;;;;5050799;28;20128;-60
2023/11/21 13:56:40;;;;;;;10.65;6.47;;;;;;;;;;5057445;28;20059;-59
2023/11/21 13:59:20;;;;;;;11.15;5.93;;;;;;;;;;5072192;28;20094;-60
2023/11/21 14:04:20;;;;;;;10.45;6.82;;;;;;;;;;5060222;28;20435;-59
2023/11/21 14:06:51;;;;;;;11.05;7.35;;;;;;;;;;5071504;28;20110;-60
2023/11/21 14:09:25;;;;;;;14.32;7.15;;;;;;;;;;5070251;28;20045;-58
2023/11/21 14:11:55;;;;;;;;;;;;;;;;;;5057708;28;20437;-68
2023/11/21 14:14:22;;;;;;;8.77;5.38;;;;;;;;;;5062170;28;19992;-59
2023/11/21 14:16:49;;;;;;;9.80;5.50;;;;;;;;;;5052586;28;20045;-59
2023/11/21 14:19:15;;;;;;;10.93;5.63;;;;;;;;;;5064357;28;20041;-59
2023/11/21 14:21:43;;;;;;;10.05;5.05;;;;;;;;;;5047336;28;20094;-59
2023/11/21 14:24:09;;;;;;;7.00;4.32;;;;;;;;;;5053403;28;20119;-60
2023/11/21 14:26:36;;;;;;;11.32;4.90;;;;;;;;;;5046694;28;20408;-60
2023/11/21 14:29:14;;;;;;;13.45;5.10;;;;;;;;;;5114613;27;20829;-59
2023/11/21 14:31:40;;;;;;;9.52;4.93;;;;;;;;;;5117616;28;20036;-59